sensor_id;sensor_type;location;lat;lon;timestamp;P1;durP1;ratioP1;P2;durP2;ratioP2
66575;SDS011;53428;47.686;16.584;2022-11-20T00:04:13;41.80;;;19.35;;
66575;SDS011;53428;47.686;16.584;2022-11-20T00:09:13;44.03;;;19.13;;
66575;SDS011;53428;47.686;16.584;2022-11-20T00:14:12;40.63;;;18.05;;
66575;SDS011;53428;47.686;16.584;2022-11-20T00:19:11;44.22;;;20.35;;
66575;SDS011;53428;47.686;16.584;2022-11-20T00:24:11;35.33;;;17.45;;
66575;SDS011;53428;47.686;16.584;2022-11-20T00:29:10;41.70;;;18.33;;
66575;SDS011;53428;47.686;16.584;2022-11-20T00:34:10;37.70;;;18.10;;
66575;SDS011;53428;47.686;16.584;2022-11-20T00:39:09;36.90;;;17.38;;
66575;SDS011;53428;47.686;16.584;2022-11-20T00:44:08;43.38;;;19.08;;
66575;SDS011;53428;47.686;16.584;2022-11-20T00:49:07;39.10;;;17.98;;
66575;SDS011;53428;47.686;16.584;2022-11-20T00:54:07;37.30;;;17.33;;
66575;SDS011;53428;47.686;16.584;2022-11-20T00:59:08;38.88;;;17.77;;
66575;SDS011;53428;47.686;16.584;2022-11-20T01:04:08;38.75;;;17.33;;
66575;SDS011;53428;47.686;16.584;2022-11-20T01:09:09;48.05;;;18.80;;
66575;SDS011;53428;47.686;16.584;2022-11-20T01:14:13;40.35;;;17.00;;
66575;SDS011;53428;47.686;16.584;2022-11-20T01:19:16;38.40;;;18.33;;
66575;SDS011;53428;47.686;16.584;2022-11-20T01:24:18;39.92;;;16.30;;
66575;SDS011;53428;47.686;16.584;2022-11-20T01:29:20;43.50;;;16.83;;
66575;SDS011;53428;47.686;16.584;2022-11-20T01:34:21;41.20;;;17.30;;
66575;SDS011;53428;47.686;16.584;2022-11-20T01:39:22;40.28;;;18.17;;
66575;SDS011;53428;47.686;16.584;2022-11-20T01:44:41;37.28;;;16.23;;
66575;SDS011;53428;47.686;16.584;2022-11-20T01:50:08;38.55;;;17.23;;
66575;SDS011;53428;47.686;16.584;2022-11-20T01:55:24;34.35;;;17.25;;
66575;SDS011;53428;47.686;16.584;2022-11-20T02:00:27;34.20;;;16.17;;
66575;SDS011;53428;47.686;16.584;2022-11-20T02:05:35;39.97;;;17.00;;
66575;SDS011;53428;47.686;16.584;2022-11-20T02:10:38;39.80;;;18.05;;
66575;SDS011;53428;47.686;16.584;2022-11-20T02:15:38;35.15;;;15.23;;
66575;SDS011;53428;47.686;16.584;2022-11-20T02:20:38;40.33;;;16.98;;
66575;SDS011;53428;47.686;16.584;2022-11-20T02:25:40;39.08;;;17.13;;
66575;SDS011;53428;47.686;16.584;2022-11-20T02:30:40;37.28;;;17.20;;
66575;SDS011;53428;47.686;16.584;2022-11-20T02:35:41;33.25;;;15.95;;
66575;SDS011;53428;47.686;16.584;2022-11-20T02:40:42;40.08;;;18.63;;
66575;SDS011;53428;47.686;16.584;2022-11-20T02:45:42;40.10;;;19.60;;
66575;SDS011;53428;47.686;16.584;2022-11-20T02:50:41;39.17;;;18.05;;
66575;SDS011;53428;47.686;16.584;2022-11-20T02:55:41;42.97;;;18.52;;
66575;SDS011;53428;47.686;16.584;2022-11-20T03:00:40;43.03;;;17.75;;
66575;SDS011;53428;47.686;16.584;2022-11-20T03:05:39;45.60;;;18.27;;
66575;SDS011;53428;47.686;16.584;2022-11-20T03:10:38;41.70;;;18.42;;
66575;SDS011;53428;47.686;16.584;2022-11-20T03:15:38;38.78;;;17.45;;
66575;SDS011;53428;47.686;16.584;2022-11-20T03:20:37;38.60;;;17.27;;
66575;SDS011;53428;47.686;16.584;2022-11-20T03:25:36;41.15;;;18.65;;
66575;SDS011;53428;47.686;16.584;2022-11-20T03:30:35;41.42;;;18.15;;
66575;SDS011;53428;47.686;16.584;2022-11-20T03:35:34;40.88;;;17.70;;
66575;SDS011;53428;47.686;16.584;2022-11-20T03:40:33;38.83;;;17.85;;
66575;SDS011;53428;47.686;16.584;2022-11-20T03:45:33;46.05;;;18.08;;
66575;SDS011;53428;47.686;16.584;2022-11-20T03:50:33;47.47;;;18.27;;
66575;SDS011;53428;47.686;16.584;2022-11-20T03:55:32;44.83;;;20.25;;
66575;SDS011;53428;47.686;16.584;2022-11-20T04:00:31;44.03;;;19.70;;
66575;SDS011;53428;47.686;16.584;2022-11-20T04:05:32;39.78;;;19.98;;
66575;SDS011;53428;47.686;16.584;2022-11-20T04:10:33;45.33;;;19.33;;
66575;SDS011;53428;47.686;16.584;2022-11-20T04:15:32;40.58;;;18.08;;
66575;SDS011;53428;47.686;16.584;2022-11-20T04:20:31;43.60;;;18.65;;
66575;SDS011;53428;47.686;16.584;2022-11-20T04:25:30;41.67;;;17.23;;
66575;SDS011;53428;47.686;16.584;2022-11-20T04:30:30;46.00;;;19.92;;
66575;SDS011;53428;47.686;16.584;2022-11-20T04:35:29;44.05;;;18.92;;
66575;SDS011;53428;47.686;16.584;2022-11-20T04:40:29;62.80;;;20.92;;
66575;SDS011;53428;47.686;16.584;2022-11-20T04:45:28;43.60;;;19.05;;
66575;SDS011;53428;47.686;16.584;2022-11-20T04:50:27;44.70;;;19.25;;
66575;SDS011;53428;47.686;16.584;2022-11-20T04:55:27;48.45;;;20.35;;
66575;SDS011;53428;47.686;16.584;2022-11-20T05:00:26;49.03;;;19.30;;
66575;SDS011;53428;47.686;16.584;2022-11-20T05:05:25;47.22;;;19.13;;
66575;SDS011;53428;47.686;16.584;2022-11-20T05:10:25;46.92;;;20.52;;
66575;SDS011;53428;47.686;16.584;2022-11-20T05:15:24;42.58;;;19.15;;
66575;SDS011;53428;47.686;16.584;2022-11-20T05:20:23;45.50;;;19.88;;
66575;SDS011;53428;47.686;16.584;2022-11-20T05:25:23;44.55;;;19.73;;
66575;SDS011;53428;47.686;16.584;2022-11-20T05:30:22;39.78;;;17.95;;
66575;SDS011;53428;47.686;16.584;2022-11-20T05:35:21;43.42;;;19.10;;
66575;SDS011;53428;47.686;16.584;2022-11-20T05:40:20;40.53;;;18.10;;
66575;SDS011;53428;47.686;16.584;2022-11-20T05:45:20;43.28;;;18.52;;
66575;SDS011;53428;47.686;16.584;2022-11-20T05:50:19;40.95;;;17.98;;
66575;SDS011;53428;47.686;16.584;2022-11-20T05:55:18;42.40;;;19.23;;
66575;SDS011;53428;47.686;16.584;2022-11-20T06:00:18;41.08;;;19.05;;
66575;SDS011;53428;47.686;16.584;2022-11-20T06:05:17;40.22;;;18.35;;
66575;SDS011;53428;47.686;16.584;2022-11-20T06:10:16;49.88;;;21.20;;
66575;SDS011;53428;47.686;16.584;2022-11-20T06:15:15;49.53;;;22.13;;
66575;SDS011;53428;47.686;16.584;2022-11-20T06:20:15;49.03;;;19.92;;
66575;SDS011;53428;47.686;16.584;2022-11-20T06:25:14;47.35;;;21.35;;
66575;SDS011;53428;47.686;16.584;2022-11-20T06:30:13;48.83;;;20.13;;
66575;SDS011;53428;47.686;16.584;2022-11-20T06:35:13;48.58;;;22.70;;
66575;SDS011;53428;47.686;16.584;2022-11-20T06:40:12;59.13;;;23.83;;
66575;SDS011;53428;47.686;16.584;2022-11-20T06:45:11;75.60;;;36.90;;
66575;SDS011;53428;47.686;16.584;2022-11-20T06:50:11;56.50;;;26.83;;
66575;SDS011;53428;47.686;16.584;2022-11-20T06:55:10;48.25;;;22.25;;
66575;SDS011;53428;47.686;16.584;2022-11-20T07:00:09;47.88;;;20.58;;
66575;SDS011;53428;47.686;16.584;2022-11-20T07:05:09;47.25;;;20.00;;
66575;SDS011;53428;47.686;16.584;2022-11-20T07:10:08;47.50;;;21.65;;
66575;SDS011;53428;47.686;16.584;2022-11-20T07:15:08;50.25;;;22.70;;
66575;SDS011;53428;47.686;16.584;2022-11-20T07:20:07;50.58;;;22.40;;
66575;SDS011;53428;47.686;16.584;2022-11-20T07:25:07;42.38;;;19.25;;
66575;SDS011;53428;47.686;16.584;2022-11-20T07:30:07;49.45;;;21.23;;
66575;SDS011;53428;47.686;16.584;2022-11-20T07:35:09;45.47;;;22.50;;
66575;SDS011;53428;47.686;16.584;2022-11-20T07:40:08;68.15;;;29.63;;
66575;SDS011;53428;47.686;16.584;2022-11-20T07:45:08;97.15;;;36.75;;
66575;SDS011;53428;47.686;16.584;2022-11-20T07:50:08;50.65;;;21.55;;
66575;SDS011;53428;47.686;16.584;2022-11-20T07:55:08;47.70;;;20.40;;
66575;SDS011;53428;47.686;16.584;2022-11-20T08:00:09;49.10;;;23.05;;
66575;SDS011;53428;47.686;16.584;2022-11-20T08:05:10;54.22;;;22.80;;
66575;SDS011;53428;47.686;16.584;2022-11-20T08:10:10;55.15;;;23.90;;
66575;SDS011;53428;47.686;16.584;2022-11-20T08:15:12;60.92;;;24.33;;
66575;SDS011;53428;47.686;16.584;2022-11-20T08:20:11;53.63;;;22.45;;
66575;SDS011;53428;47.686;16.584;2022-11-20T08:25:11;50.97;;;20.85;;
66575;SDS011;53428;47.686;16.584;2022-11-20T08:30:10;50.03;;;22.52;;
66575;SDS011;53428;47.686;16.584;2022-11-20T08:35:10;60.92;;;24.88;;
66575;SDS011;53428;47.686;16.584;2022-11-20T08:40:10;62.90;;;28.23;;
66575;SDS011;53428;47.686;16.584;2022-11-20T08:45:10;65.70;;;27.77;;
66575;SDS011;53428;47.686;16.584;2022-11-20T08:50:10;63.88;;;29.15;;
66575;SDS011;53428;47.686;16.584;2022-11-20T08:55:10;67.53;;;30.05;;
66575;SDS011;53428;47.686;16.584;2022-11-20T09:00:10;60.65;;;27.23;;
66575;SDS011;53428;47.686;16.584;2022-11-20T09:05:10;58.50;;;28.17;;
66575;SDS011;53428;47.686;16.584;2022-11-20T09:10:09;59.33;;;28.40;;
66575;SDS011;53428;47.686;16.584;2022-11-20T09:15:09;58.80;;;26.95;;
66575;SDS011;53428;47.686;16.584;2022-11-20T09:20:08;45.22;;;21.50;;
66575;SDS011;53428;47.686;16.584;2022-11-20T09:25:08;54.88;;;24.15;;
66575;SDS011;53428;47.686;16.584;2022-11-20T09:30:07;49.75;;;23.77;;
66575;SDS011;53428;47.686;16.584;2022-11-20T09:35:09;54.03;;;25.17;;
66575;SDS011;53428;47.686;16.584;2022-11-20T09:50:32;46.00;;;21.60;;
66575;SDS011;53428;47.686;16.584;2022-11-20T09:55:50;49.95;;;24.02;;
66575;SDS011;53428;47.686;16.584;2022-11-20T10:00:50;47.92;;;23.80;;
66575;SDS011;53428;47.686;16.584;2022-11-20T10:05:53;50.30;;;24.40;;
66575;SDS011;53428;47.686;16.584;2022-11-20T10:10:56;53.85;;;24.25;;
66575;SDS011;53428;47.686;16.584;2022-11-20T10:31:55;57.30;;;26.17;;
66575;SDS011;53428;47.686;16.584;2022-11-20T10:37:02;51.65;;;23.75;;
66575;SDS011;53428;47.686;16.584;2022-11-20T10:42:09;42.60;;;20.70;;
66575;SDS011;53428;47.686;16.584;2022-11-20T10:47:15;44.17;;;21.73;;
66575;SDS011;53428;47.686;16.584;2022-11-20T11:02:42;42.42;;;22.10;;
66575;SDS011;53428;47.686;16.584;2022-11-20T11:07:46;47.10;;;22.35;;
66575;SDS011;53428;47.686;16.584;2022-11-20T11:12:49;49.50;;;24.08;;
66575;SDS011;53428;47.686;16.584;2022-11-20T11:17:48;49.50;;;23.30;;
66575;SDS011;53428;47.686;16.584;2022-11-20T11:22:48;48.75;;;21.15;;
66575;SDS011;53428;47.686;16.584;2022-11-20T11:27:50;41.65;;;19.83;;
66575;SDS011;53428;47.686;16.584;2022-11-20T11:32:50;43.15;;;22.27;;
66575;SDS011;53428;47.686;16.584;2022-11-20T11:38:05;42.05;;;21.60;;
66575;SDS011;53428;47.686;16.584;2022-11-20T11:43:22;37.80;;;21.02;;
66575;SDS011;53428;47.686;16.584;2022-11-20T11:48:42;45.20;;;22.60;;
66575;SDS011;53428;47.686;16.584;2022-11-20T11:53:53;49.22;;;23.63;;
66575;SDS011;53428;47.686;16.584;2022-11-20T11:58:52;39.08;;;21.58;;
66575;SDS011;53428;47.686;16.584;2022-11-20T12:09:20;33.92;;;20.70;;
66575;SDS011;53428;47.686;16.584;2022-11-20T12:14:28;35.60;;;21.48;;
66575;SDS011;53428;47.686;16.584;2022-11-20T12:19:34;38.80;;;22.35;;
66575;SDS011;53428;47.686;16.584;2022-11-20T12:56:24;36.50;;;18.48;;
66575;SDS011;53428;47.686;16.584;2022-11-20T13:01:36;34.92;;;19.40;;
66575;SDS011;53428;47.686;16.584;2022-11-20T13:07:05;33.00;;;18.30;;
66575;SDS011;53428;47.686;16.584;2022-11-20T13:22:44;38.20;;;18.08;;
66575;SDS011;53428;47.686;16.584;2022-11-20T13:27:53;30.08;;;17.92;;
66575;SDS011;53428;47.686;16.584;2022-11-20T13:32:57;27.85;;;17.95;;
66575;SDS011;53428;47.686;16.584;2022-11-20T13:38:08;26.70;;;18.02;;
66575;SDS011;53428;47.686;16.584;2022-11-20T13:43:32;32.78;;;21.42;;
66575;SDS011;53428;47.686;16.584;2022-11-20T13:48:41;31.58;;;18.45;;
66575;SDS011;53428;47.686;16.584;2022-11-20T13:53:47;34.90;;;19.05;;
66575;SDS011;53428;47.686;16.584;2022-11-20T14:04:07;33.72;;;20.52;;
66575;SDS011;53428;47.686;16.584;2022-11-20T14:09:27;38.22;;;18.92;;
66575;SDS011;53428;47.686;16.584;2022-11-20T14:14:29;39.85;;;20.15;;
66575;SDS011;53428;47.686;16.584;2022-11-20T14:19:29;32.97;;;17.98;;
66575;SDS011;53428;47.686;16.584;2022-11-20T14:24:31;38.67;;;20.55;;
66575;SDS011;53428;47.686;16.584;2022-11-20T14:29:34;44.53;;;22.55;;
66575;SDS011;53428;47.686;16.584;2022-11-20T14:34:37;44.47;;;22.08;;
66575;SDS011;53428;47.686;16.584;2022-11-20T14:39:42;54.60;;;25.02;;
66575;SDS011;53428;47.686;16.584;2022-11-20T14:44:48;48.90;;;25.75;;
66575;SDS011;53428;47.686;16.584;2022-11-20T14:49:49;45.65;;;24.27;;
66575;SDS011;53428;47.686;16.584;2022-11-20T14:54:51;48.15;;;23.88;;
66575;SDS011;53428;47.686;16.584;2022-11-20T15:05:10;50.83;;;24.33;;
66575;SDS011;53428;47.686;16.584;2022-11-20T15:10:19;81.03;;;38.75;;
66575;SDS011;53428;47.686;16.584;2022-11-20T15:20:31;70.43;;;34.85;;
66575;SDS011;53428;47.686;16.584;2022-11-20T15:25:31;70.13;;;31.88;;
66575;SDS011;53428;47.686;16.584;2022-11-20T15:30:31;59.78;;;27.35;;
66575;SDS011;53428;47.686;16.584;2022-11-20T15:35:30;77.07;;;35.55;;
66575;SDS011;53428;47.686;16.584;2022-11-20T15:40:29;83.20;;;38.75;;
66575;SDS011;53428;47.686;16.584;2022-11-20T15:45:36;70.63;;;34.03;;
66575;SDS011;53428;47.686;16.584;2022-11-20T15:55:58;57.70;;;26.38;;
66575;SDS011;53428;47.686;16.584;2022-11-20T16:00:57;64.05;;;29.17;;
66575;SDS011;53428;47.686;16.584;2022-11-20T16:05:57;61.80;;;26.45;;
66575;SDS011;53428;47.686;16.584;2022-11-20T16:10:56;65.90;;;28.15;;
66575;SDS011;53428;47.686;16.584;2022-11-20T16:15:57;75.70;;;30.67;;
66575;SDS011;53428;47.686;16.584;2022-11-20T16:20:57;54.05;;;24.85;;
66575;SDS011;53428;47.686;16.584;2022-11-20T16:25:57;68.38;;;29.77;;
66575;SDS011;53428;47.686;16.584;2022-11-20T16:30:56;51.75;;;25.67;;
66575;SDS011;53428;47.686;16.584;2022-11-20T16:35:55;54.30;;;25.63;;
66575;SDS011;53428;47.686;16.584;2022-11-20T16:40:59;78.07;;;34.22;;
66575;SDS011;53428;47.686;16.584;2022-11-20T16:45:59;78.70;;;38.05;;
66575;SDS011;53428;47.686;16.584;2022-11-20T16:51:02;71.07;;;35.75;;
66575;SDS011;53428;47.686;16.584;2022-11-20T16:56:11;75.45;;;35.65;;
66575;SDS011;53428;47.686;16.584;2022-11-20T17:01:14;68.60;;;32.67;;
66575;SDS011;53428;47.686;16.584;2022-11-20T17:06:19;71.38;;;36.03;;
66575;SDS011;53428;47.686;16.584;2022-11-20T17:11:20;103.15;;;41.72;;
66575;SDS011;53428;47.686;16.584;2022-11-20T17:16:21;101.97;;;45.42;;
66575;SDS011;53428;47.686;16.584;2022-11-20T17:21:21;122.38;;;51.85;;
66575;SDS011;53428;47.686;16.584;2022-11-20T17:26:22;105.57;;;48.85;;
66575;SDS011;53428;47.686;16.584;2022-11-20T17:31:21;126.70;;;57.08;;
66575;SDS011;53428;47.686;16.584;2022-11-20T17:36:21;125.93;;;55.90;;
66575;SDS011;53428;47.686;16.584;2022-11-20T17:41:21;136.52;;;59.50;;
66575;SDS011;53428;47.686;16.584;2022-11-20T17:46:25;110.25;;;51.42;;
66575;SDS011;53428;47.686;16.584;2022-11-20T17:51:27;161.65;;;68.07;;
66575;SDS011;53428;47.686;16.584;2022-11-20T17:56:34;154.88;;;69.85;;
66575;SDS011;53428;47.686;16.584;2022-11-20T18:01:52;163.02;;;71.20;;
66575;SDS011;53428;47.686;16.584;2022-11-20T18:06:52;137.65;;;59.40;;
66575;SDS011;53428;47.686;16.584;2022-11-20T18:11:51;142.10;;;58.55;;
66575;SDS011;53428;47.686;16.584;2022-11-20T18:16:52;122.65;;;55.13;;
66575;SDS011;53428;47.686;16.584;2022-11-20T18:21:53;154.27;;;67.03;;
66575;SDS011;53428;47.686;16.584;2022-11-20T18:26:52;151.23;;;65.30;;
66575;SDS011;53428;47.686;16.584;2022-11-20T18:31:51;137.18;;;57.63;;
66575;SDS011;53428;47.686;16.584;2022-11-20T18:36:51;141.20;;;64.43;;
66575;SDS011;53428;47.686;16.584;2022-11-20T18:41:50;152.40;;;68.13;;
66575;SDS011;53428;47.686;16.584;2022-11-20T18:52:08;89.60;;;40.35;;
66575;SDS011;53428;47.686;16.584;2022-11-20T18:57:09;78.30;;;33.15;;
66575;SDS011;53428;47.686;16.584;2022-11-20T19:02:12;81.80;;;33.25;;
66575;SDS011;53428;47.686;16.584;2022-11-20T19:07:16;86.38;;;38.35;;
66575;SDS011;53428;47.686;16.584;2022-11-20T19:12:16;91.38;;;36.08;;
66575;SDS011;53428;47.686;16.584;2022-11-20T19:17:15;83.85;;;34.65;;
66575;SDS011;53428;47.686;16.584;2022-11-20T19:22:15;87.20;;;38.10;;
66575;SDS011;53428;47.686;16.584;2022-11-20T19:27:14;78.15;;;36.22;;
66575;SDS011;53428;47.686;16.584;2022-11-20T19:32:13;86.43;;;36.90;;
66575;SDS011;53428;47.686;16.584;2022-11-20T19:37:14;80.28;;;38.38;;
66575;SDS011;53428;47.686;16.584;2022-11-20T19:42:13;102.10;;;46.13;;
66575;SDS011;53428;47.686;16.584;2022-11-20T19:47:13;107.32;;;46.70;;
66575;SDS011;53428;47.686;16.584;2022-11-20T19:52:23;97.15;;;39.35;;
66575;SDS011;53428;47.686;16.584;2022-11-20T19:57:22;81.22;;;36.30;;
66575;SDS011;53428;47.686;16.584;2022-11-20T20:02:21;71.82;;;31.30;;
66575;SDS011;53428;47.686;16.584;2022-11-20T20:07:20;70.85;;;32.28;;
66575;SDS011;53428;47.686;16.584;2022-11-20T20:12:19;77.15;;;31.60;;
66575;SDS011;53428;47.686;16.584;2022-11-20T20:17:19;62.13;;;26.83;;
66575;SDS011;53428;47.686;16.584;2022-11-20T20:22:18;64.07;;;28.60;;
66575;SDS011;53428;47.686;16.584;2022-11-20T20:27:17;70.93;;;31.30;;
66575;SDS011;53428;47.686;16.584;2022-11-20T20:32:16;79.22;;;31.08;;
66575;SDS011;53428;47.686;16.584;2022-11-20T20:37:16;63.85;;;28.33;;
66575;SDS011;53428;47.686;16.584;2022-11-20T20:42:15;69.00;;;29.15;;
66575;SDS011;53428;47.686;16.584;2022-11-20T20:47:15;68.90;;;29.92;;
66575;SDS011;53428;47.686;16.584;2022-11-20T20:52:14;70.25;;;30.95;;
66575;SDS011;53428;47.686;16.584;2022-11-20T20:57:13;70.55;;;29.45;;
66575;SDS011;53428;47.686;16.584;2022-11-20T21:02:13;83.28;;;32.78;;
66575;SDS011;53428;47.686;16.584;2022-11-20T21:07:12;77.85;;;37.17;;
66575;SDS011;53428;47.686;16.584;2022-11-20T21:12:11;88.57;;;37.05;;
66575;SDS011;53428;47.686;16.584;2022-11-20T21:17:10;85.25;;;36.97;;
66575;SDS011;53428;47.686;16.584;2022-11-20T21:22:10;69.78;;;33.03;;
66575;SDS011;53428;47.686;16.584;2022-11-20T21:27:09;75.18;;;32.55;;
66575;SDS011;53428;47.686;16.584;2022-11-20T21:32:08;91.20;;;37.40;;
66575;SDS011;53428;47.686;16.584;2022-11-20T21:37:08;83.70;;;37.08;;
66575;SDS011;53428;47.686;16.584;2022-11-20T21:42:07;82.10;;;34.70;;
66575;SDS011;53428;47.686;16.584;2022-11-20T21:47:07;79.25;;;37.50;;
66575;SDS011;53428;47.686;16.584;2022-11-20T21:52:06;87.72;;;38.15;;
66575;SDS011;53428;47.686;16.584;2022-11-20T21:57:05;83.93;;;35.90;;
66575;SDS011;53428;47.686;16.584;2022-11-20T22:02:05;76.00;;;30.48;;
66575;SDS011;53428;47.686;16.584;2022-11-20T22:07:05;66.90;;;27.67;;
66575;SDS011;53428;47.686;16.584;2022-11-20T22:12:05;58.28;;;25.27;;
66575;SDS011;53428;47.686;16.584;2022-11-20T22:17:04;56.25;;;26.80;;
66575;SDS011;53428;47.686;16.584;2022-11-20T22:22:10;62.78;;;29.25;;
66575;SDS011;53428;47.686;16.584;2022-11-20T22:27:09;59.35;;;27.15;;
66575;SDS011;53428;47.686;16.584;2022-11-20T22:32:09;77.05;;;29.88;;
66575;SDS011;53428;47.686;16.584;2022-11-20T22:37:08;60.28;;;25.08;;
66575;SDS011;53428;47.686;16.584;2022-11-20T22:42:08;59.10;;;25.67;;
66575;SDS011;53428;47.686;16.584;2022-11-20T22:47:07;48.08;;;21.10;;
66575;SDS011;53428;47.686;16.584;2022-11-20T22:52:06;46.50;;;22.58;;
66575;SDS011;53428;47.686;16.584;2022-11-20T22:57:06;43.50;;;21.10;;
66575;SDS011;53428;47.686;16.584;2022-11-20T23:02:05;49.00;;;23.63;;
66575;SDS011;53428;47.686;16.584;2022-11-20T23:07:04;42.30;;;21.65;;
66575;SDS011;53428;47.686;16.584;2022-11-20T23:12:04;48.50;;;23.30;;
66575;SDS011;53428;47.686;16.584;2022-11-20T23:17:03;46.55;;;23.70;;
66575;SDS011;53428;47.686;16.584;2022-11-20T23:22:07;50.85;;;24.38;;
66575;SDS011;53428;47.686;16.584;2022-11-20T23:27:06;54.03;;;23.90;;
66575;SDS011;53428;47.686;16.584;2022-11-20T23:32:05;44.40;;;21.65;;
66575;SDS011;53428;47.686;16.584;2022-11-20T23:37:05;46.53;;;21.98;;
66575;SDS011;53428;47.686;16.584;2022-11-20T23:42:04;52.15;;;22.15;;
66575;SDS011;53428;47.686;16.584;2022-11-20T23:47:04;44.53;;;20.73;;
66575;SDS011;53428;47.686;16.584;2022-11-20T23:52:03;34.22;;;17.60;;
66575;SDS011;53428;47.686;16.584;2022-11-20T23:57:02;41.55;;;19.83;;
